x

8775792 - Packery Channel, Tx (pact2) Weather Station

2:18pm - Mon 19th Feb 2018 All times are CST. -6 hours from GMT.

  • Wind
    17mph, 22mph gusts
  • Sea Temp 73°f
  • Air Temp 72°f
  • Sea Pressure 1011.9mb
  • 8775792 - Packery Channel, Tx
  • 8775792 - Packery Channel, Tx

More Historic Weather Station data

Upgrade to MSW Pro to gain access to the past 30 days of data for over 8000 Wavebouys and Weather Stations around the globe.

Join

Comparision Forecast

View Surf forecast
   
Mon 02/19 2:18pm 17 22 mph 1011.9mb 73f 72f
2:12pm 17 25 mph 1011.9mb 73f 72f
2:06pm 20 25 mph 1011.9mb 73f 72f
2:00pm 18 25 mph 1012mb 73f 72f
1:54pm 18 24 mph 1012mb 73f 72f
1:48pm 17 25 mph 1012.1mb 73f 72f
1:42pm 18 24 mph 1012.1mb 73f 71f
1:36pm 22 29 mph 1012.3mb 73f 71f
1:30pm 20 25 mph 1012.3mb 73f 72f
1:24pm 21 28 mph 1012.4mb 73f 72f
1:18pm 20 25 mph 1012.4mb 73f 72f
1:12pm 21 26 mph 1012.4mb 73f 72f
1:06pm 20 26 mph 1012.6mb 73f 71f
1:00pm 21 29 mph 1012.7mb 73f 71f
12:54pm 20 28 mph 1012.8mb 73f 71f
12:48pm 18 24 mph 1012.9mb 73f 72f
12:42pm 20 26 mph 1013mb 73f 71f
12:36pm 17 25 mph 1013.2mb 73f 71f
12:30pm 18 26 mph 1013.3mb 72f 71f
12:24pm 20 25 mph 1013.5mb 72f 71f
12:18pm 20 28 mph 1013.6mb 72f 71f
12:12pm 18 29 mph 1013.6mb 72f 71f
12:06pm 22 29 mph 1013.7mb 72f 71f
12:00pm 21 26 mph 1013.7mb 72f 71f
11:54am 21 29 mph 1013.8mb 72f 71f
11:48am 16 24 mph 1013.8mb 72f 71f
11:42am 20 31 mph 1013.8mb 72f 71f
11:36am 20 28 mph 1013.9mb 72f 72f
11:30am 18 29 mph 1014mb 72f 72f
11:24am 20 26 mph 1014mb 71f 72f
11:18am 20 28 mph 1014.1mb 71f 72f
11:12am 21 28 mph 1014.2mb 71f 72f
11:06am 21 28 mph 1014.2mb 71f 71f
11:00am 20 28 mph 1014.3mb 71f 71f
10:54am 22 28 mph 1014.4mb 71f 71f
10:48am 21 28 mph 1014.4mb 71f 71f
10:42am 21 28 mph 1014.4mb 71f 71f
10:36am 23 30 mph 1014.5mb 70f 71f
10:30am 20 25 mph 1014.4mb 70f 72f
10:24am 21 26 mph 1014.5mb 70f 71f
10:18am 21 26 mph 1014.5mb 70f 71f
10:12am 21 28 mph 1014.6mb 70f 71f
10:06am 18 23 mph 1014.6mb 70f 71f
10:00am 17 24 mph 1014.8mb 70f 71f
9:30am 16 21 mph 1014.9mb 70f 70f
9:24am 14 18 mph 1014.9mb 70f 70f
9:18am 15 18 mph 1014.8mb 70f 70f
9:12am 16 20 mph 1014.7mb 70f 70f
9:06am 15 21 mph 1014.7mb 70f 70f
9:00am 14 21 mph 1014.6mb 70f 69f
8:54am 13 18 mph 1014.6mb 70f 69f
8:48am 14 16 mph 1014.6mb 70f 69f
8:42am 15 18 mph 1014.6mb 70f 69f
8:36am 14 16 mph 1014.6mb 70f 69f
8:30am 13 14 mph 1014.5mb 70f 69f
8:24am 10 15 mph 1014.5mb 70f 68f
8:18am 11 14 mph 1014.5mb 70f 68f
8:12am 14 17 mph 1014.5mb 70f 68f
8:06am 10 15 mph 1014.5mb 70f 68f
8:00am 11 16 mph 1014.4mb 70f 68f
7:54am 13 16 mph 1014.4mb 70f 68f
7:48am 13 18 mph 1014.4mb 70f 68f
7:42am 13 17 mph 1014.4mb 70f 67f
7:36am 14 20 mph 1014.3mb 70f 68f
7:30am 13 18 mph 1014.3mb 70f 67f
7:24am 14 20 mph 1014.3mb 70f 67f
7:18am 14 18 mph 1014mb 70f 67f
7:12am 15 21 mph 1013.8mb 70f 67f
7:06am 14 20 mph 1013.6mb 70f 67f
7:00am 14 20 mph 1013.5mb 70f 67f
6:48am 14 20 mph 1013.4mb 70f 67f
6:42am 15 22 mph 1013.4mb 70f 67f
6:36am 13 17 mph 1013.3mb 70f 67f
6:30am 13 21 mph 1013.3mb 70f 67f
6:24am 13 17 mph 1013.3mb 70f 67f
6:18am 11 16 mph 1013.3mb 70f 67f
6:12am 14 17 mph 1013.2mb 70f 68f
6:06am 15 18 mph 1013.2mb 70f 68f
6:00am 15 21 mph 1013.1mb 70f 68f
5:54am 14 18 mph 1013.2mb 70f 68f
5:48am 14 18 mph 1013.2mb 70f 68f
5:42am 14 20 mph 1013.2mb 70f 68f
5:36am 11 17 mph 1013.2mb 70f 68f
5:30am 13 18 mph 1013.3mb 70f 68f
5:24am 15 20 mph 1013.3mb 70f 68f
5:18am 14 18 mph 1013.3mb 70f 68f
5:12am 13 18 mph 1013.3mb 70f 68f
5:06am 14 23 mph 1013.2mb 70f 68f
5:00am 16 22 mph 1013.2mb 70f 68f
4:54am 14 18 mph 1013.2mb 70f 68f
4:48am 11 18 mph 1013.2mb 70f 68f
4:42am 14 21 mph 1013.2mb 70f 68f
4:36am 14 20 mph 1013.2mb 70f 68f
4:30am 14 20 mph 1013.2mb 70f 68f
4:24am 14 17 mph 1013.2mb 70f 68f
4:18am 14 18 mph 1013.2mb 70f 68f
4:12am 14 23 mph 1013.2mb 70f 68f
4:06am 16 22 mph 1013.2mb 70f 68f
4:00am 14 23 mph 1013.3mb 70f 68f
3:54am 16 18 mph 1013.3mb 70f 68f
3:48am 16 20 mph 1013.2mb 70f 68f
3:42am 11 18 mph 1013.2mb 70f 68f
3:36am 13 22 mph 1013.2mb 70f 68f
3:30am 17 22 mph 1013.2mb 71f 68f
3:24am 16 22 mph 1013.2mb 71f 68f
3:18am 14 18 mph 1013.3mb 71f 68f
3:12am 15 21 mph 1013.2mb 71f 68f
3:06am 16 21 mph 1013.1mb 71f 68f
3:00am 15 20 mph 1013.1mb 71f 68f
2:54am 14 20 mph 1013.2mb 71f 68f
2:48am 15 20 mph 1013.2mb 71f 68f
2:42am 14 18 mph 1013.2mb 71f 68f
2:36am 16 21 mph 1013.2mb 71f 68f
2:30am 16 21 mph 1013.3mb 71f 68f
2:24am 15 21 mph 1013.4mb 71f 68f
2:18am 17 23 mph 1013.4mb 71f 68f
2:12am 18 24 mph 1013.5mb 71f 68f
2:06am 16 22 mph 1013.6mb 71f 68f
2:00am 17 23 mph 1013.6mb 71f 68f
1:54am 15 22 mph 1013.6mb 71f 68f
1:48am 16 21 mph 1013.7mb 71f 68f
1:42am 16 21 mph 1013.7mb 71f 68f
1:36am 15 21 mph 1013.8mb 71f 68f
1:30am 15 22 mph 1013.8mb 71f 68f
1:24am 17 22 mph 1013.7mb 71f 68f
1:18am 17 23 mph - - -
1:12am 15 21 mph 1013.8mb 71f 68f
1:06am 15 20 mph 1013.9mb 71f 68f
1:00am 14 20 mph 1013.9mb 72f 68f
12:54am 16 20 mph 1013.9mb 72f 68f
12:48am 15 20 mph 1014mb 72f 68f
12:42am 14 22 mph 1013.9mb 72f 68f
12:36am 16 24 mph 1014mb 72f 68f
12:30am 15 22 mph 1014mb 72f 68f
12:24am 15 24 mph 1014mb 72f 68f
12:18am 17 22 mph 1014.1mb 72f 68f
12:12am 16 20 mph 1014.2mb 72f 68f
12:06am 15 21 mph 1014.2mb 72f 68f
12:00am 15 18 mph 1014.4mb 72f 68f
Sun 02/18 11:54pm 14 20 mph 1014.5mb 72f 68f
11:48pm 16 23 mph 1014.5mb 72f 68f
11:42pm 16 22 mph 1014.6mb 72f 68f
11:36pm 15 21 mph 1014.6mb 72f 68f
11:30pm 15 22 mph 1014.6mb 72f 68f
11:24pm 16 22 mph 1014.7mb 72f 68f
11:18pm 17 23 mph 1014.7mb 72f -
11:12pm 17 22 mph 1014.7mb 72f 69f
11:06pm 16 23 mph 1014.8mb 72f 69f
11:00pm 16 23 mph 1014.8mb 72f 69f
10:54pm 17 22 mph 1014.8mb 72f 69f
10:48pm 18 24 mph 1014.9mb 72f 69f
10:42pm 17 26 mph 1014.9mb 72f 69f
10:36pm 15 22 mph 1014.9mb 73f 69f
10:30pm 17 23 mph 1014.9mb 73f 69f
10:24pm 18 24 mph 1014.9mb 73f 69f
10:18pm 17 23 mph 1015mb 73f 69f
10:12pm 16 21 mph 1015.1mb 73f 69f
10:06pm 15 22 mph 1015.1mb 73f 68f
10:00pm 15 23 mph 1015.2mb 73f 68f
9:54pm 16 20 mph 1015.3mb 73f 69f
9:48pm 15 22 mph 1015.2mb 73f 69f
9:42pm 16 22 mph 1015.3mb 73f 69f
9:36pm 15 21 mph 1015.3mb 73f 69f
9:30pm 18 22 mph 1015.3mb 73f 69f
9:24pm 17 23 mph 1015.2mb 73f 69f
9:18pm 18 22 mph 1015.2mb 73f 70f
9:12pm 16 22 mph 1015.2mb 73f 69f
9:06pm 18 22 mph 1015.2mb 73f 69f
9:00pm 16 23 mph 1015.3mb 73f 70f
8:54pm 18 24 mph 1015.2mb 73f 70f
8:48pm 18 23 mph 1015.3mb 73f 70f
8:42pm 16 21 mph 1015.3mb 73f 70f
8:36pm 17 23 mph 1015.3mb 73f 70f
8:30pm 17 26 mph 1015.3mb 73f 70f
8:24pm 17 23 mph 1015.3mb 73f 69f
8:18pm 18 24 mph 1015.2mb 73f 70f
8:12pm 18 24 mph 1015.2mb 73f 70f
8:06pm 20 24 mph 1015.1mb 73f 70f
8:00pm 18 25 mph 1015mb 73f 70f
7:54pm 18 24 mph 1015.1mb 73f 70f
7:48pm 18 23 mph 1015mb 73f 70f
7:42pm 20 25 mph 1014.8mb 73f 70f
7:36pm 18 25 mph 1014.9mb 73f 69f
7:30pm 18 24 mph 1014.7mb 73f 69f
7:24pm 17 25 mph 1014.7mb 74f 69f
7:18pm 17 24 mph 1014.7mb 74f 69f
7:12pm 18 22 mph 1014.7mb 74f 69f
7:06pm 16 20 mph 1014.7mb 74f 69f
7:00pm 16 22 mph 1014.7mb 74f 69f
6:54pm 18 23 mph 1014.7mb 74f 69f
6:48pm 17 22 mph 1014.7mb 74f 70f
6:42pm 16 23 mph 1014.6mb 74f 69f
6:36pm 17 22 mph 1014.7mb 74f 69f
6:30pm 15 22 mph 1014.7mb 74f 68f
6:24pm 17 22 mph 1014.8mb 74f 68f
6:18pm 16 20 mph 1014.7mb 74f 68f
6:12pm 16 18 mph 1014.7mb 74f 68f
6:06pm 15 21 mph 1014.7mb 74f 68f
6:00pm 16 21 mph 1014.7mb 74f 68f
5:54pm 15 18 mph 1014.8mb 73f 69f
5:48pm 15 20 mph 1014.8mb 73f 69f
5:42pm 16 20 mph 1014.8mb 73f 69f
5:36pm 14 21 mph 1014.8mb 73f 70f
5:30pm 14 21 mph 1014.8mb 73f 70f
5:24pm 15 21 mph 1014.8mb 73f 70f
5:18pm 15 22 mph 1014.8mb 73f 70f
5:12pm 15 22 mph 1014.7mb 73f 71f
5:06pm 17 24 mph 1014.6mb 73f 71f
5:00pm 15 18 mph 1014.6mb 73f 71f
4:54pm 16 22 mph 1014.8mb 73f 71f
4:48pm 15 20 mph 1014.7mb 73f 71f
4:42pm 17 23 mph 1014.7mb 73f 72f
4:36pm 15 23 mph 1014.9mb 73f 72f
4:30pm 17 26 mph 1014.9mb 73f 72f
4:24pm 16 21 mph 1014.9mb 73f 72f
4:18pm 15 25 mph 1014.9mb 73f 72f
4:12pm 18 22 mph 1015.1mb 73f 72f
4:06pm 16 22 mph 1015.1mb 73f 72f
4:00pm 13 23 mph 1015.2mb 73f 72f
3:54pm 14 18 mph 1015.2mb 73f 72f
3:48pm 16 21 mph 1015.3mb 73f 72f
3:42pm 14 22 mph 1015.4mb 73f 73f
3:36pm 15 21 mph 1015.4mb 72f 73f
3:30pm 15 24 mph 1015.4mb 72f 72f
3:24pm 16 23 mph 1015.4mb 72f 73f
3:18pm 13 21 mph 1015.5mb 72f 73f
3:12pm 13 20 mph 1015.6mb 72f 73f
3:06pm 14 21 mph 1015.7mb 72f 73f
3:00pm 15 22 mph 1015.8mb 72f 73f
2:54pm 13 21 mph 1015.9mb 72f 74f
2:48pm 15 23 mph 1016mb 72f 74f
2:42pm 15 22 mph 1016.1mb 72f 74f
2:36pm 17 24 mph 1016.2mb 72f 73f
2:30pm 16 23 mph 1016.3mb 72f 73f
2:24pm 16 23 mph 1016.4mb 72f 73f
2:18pm 14 21 mph 1016.4mb 72f 73f
2:12pm 14 21 mph 1016.5mb 72f 73f
2:06pm 15 23 mph 1016.5mb 72f 73f
2:00pm 16 24 mph 1016.6mb 72f 73f
1:54pm 15 23 mph 1016.8mb 72f 73f
1:48pm 18 23 mph 1016.9mb 72f 73f
1:42pm 14 22 mph 1017mb 71f 73f
1:36pm 15 21 mph 1017mb 71f 73f
1:30pm 11 17 mph 1017.1mb 71f 73f
1:24pm 11 18 mph 1017.2mb 71f 72f
1:18pm 13 17 mph 1017.3mb 71f 72f
1:12pm 13 16 mph 1017.5mb 71f 72f
1:06pm 10 18 mph 1017.5mb 71f 72f
1:00pm 10 16 mph 1017.6mb 71f 72f
12:54pm 11 16 mph 1017.6mb 71f 71f
12:48pm 10 14 mph 1017.7mb 71f 71f
12:42pm 11 16 mph 1017.8mb 71f 71f
12:36pm 8 14 mph 1018mb 71f 71f
12:30pm 11 16 mph 1018.1mb 71f 70f
12:24pm 11 17 mph 1018.1mb 71f 71f
12:18pm 10 14 mph 1018.3mb 71f 71f
12:12pm 7 11 mph 1018.4mb 71f 71f
12:06pm 9 14 mph 1018.6mb 71f 71f
12:00pm 10 14 mph 1018.7mb 71f 71f
11:54am 9 14 mph 1018.9mb 71f 71f
11:48am 8 16 mph 1019mb 71f 72f
11:42am 7 13 mph 1019.1mb 71f 72f
11:36am 8 13 mph 1019.1mb 71f 72f
11:30am 10 15 mph 1019.1mb 71f 71f
11:24am 10 15 mph 1019.2mb 71f 71f
11:18am 10 15 mph 1019.3mb 71f 72f
11:12am 11 15 mph 1019.3mb 71f 72f
11:06am 14 18 mph 1019.4mb 71f 72f
11:00am 11 15 mph 1019.3mb 71f 73f
10:54am 14 20 mph 1019.3mb 71f 73f
10:48am 13 18 mph 1019.2mb 71f 73f
10:42am 11 15 mph 1019.2mb 71f 73f
10:36am 11 16 mph 1019.2mb 71f 72f
10:30am 10 16 mph 1019.3mb 71f 72f
10:24am 11 15 mph 1019.3mb 71f 71f
10:18am 11 16 mph 1019.3mb 70f 72f
10:12am 10 14 mph 1019.4mb 70f 71f
10:06am 9 14 mph 1019.3mb 70f 72f
10:00am 8 10 mph 1019.2mb 70f 71f
9:54am 9 14 mph 1019.2mb 70f 70f
9:48am 10 15 mph 1019.2mb 70f 70f
9:42am 10 13 mph 1019.1mb 70f 69f
9:36am 7 13 mph 1019mb 70f 70f
9:30am 8 11 mph 1019.1mb 70f 69f
9:24am 7 11 mph 1019.1mb 70f 69f
9:18am 6 10 mph 1019mb 70f 69f
9:12am 7 9 mph 1019mb 70f 69f
9:06am 9 11 mph 1018.9mb 70f 68f
9:00am 8 13 mph 1018.9mb 70f 68f
8:54am 7 11 mph 1018.8mb 70f 69f
8:48am 8 11 mph 1018.8mb 70f 69f
8:42am 8 11 mph 1018.7mb 70f 68f
8:36am 7 13 mph 1018.6mb 70f 68f
8:30am 8 11 mph 1018.6mb 70f 68f
8:24am 8 11 mph 1018.5mb 70f 68f
8:18am 10 14 mph 1018.4mb 70f 68f
8:12am 9 14 mph 1018.4mb 70f 68f
8:06am 8 13 mph 1018.3mb 70f 69f
8:00am 8 10 mph 1018.3mb 70f 69f
7:54am 8 13 mph 1018.3mb 70f 69f
7:48am 8 11 mph 1018.3mb 70f 69f
7:42am 9 11 mph 1018.3mb 70f 69f
7:36am 7 9 mph 1018.4mb 70f 68f
7:30am 8 9 mph 1018.3mb 70f 68f
7:24am 8 10 mph 1018.3mb 70f 69f
7:18am 6 9 mph 1018.3mb 70f 68f
7:12am 7 9 mph 1018.2mb 70f 68f
7:06am 8 9 mph 1018.1mb 70f 68f
7:00am 8 11 mph 1018.1mb 70f 68f
6:54am 8 13 mph 1018.1mb 70f 68f
6:48am 9 11 mph 1018.1mb 70f 68f
6:42am 9 13 mph 1018.1mb 70f 68f
6:36am 9 14 mph 1018.1mb 70f 68f
6:30am 9 11 mph 1018.1mb 70f 68f
6:24am 8 13 mph 1018.1mb 70f 68f
6:18am 9 13 mph - - -
6:12am 8 11 mph 1018mb 70f 68f
6:06am 9 11 mph 1017.9mb 70f 68f
6:00am 10 13 mph 1017.9mb 70f 69f
5:54am 8 13 mph 1017.9mb 70f 69f
5:48am 10 13 mph 1017.9mb 70f 68f
5:42am 9 11 mph 1017.8mb 70f 69f
5:36am 10 13 mph 1017.8mb 70f 69f
5:30am 9 14 mph 1017.8mb 70f 68f
5:24am 9 13 mph 1017.8mb 70f 68f
5:18am 9 11 mph 1017.8mb 70f 68f
5:12am 9 13 mph 1017.8mb 70f 68f
5:06am 10 14 mph 1017.8mb 70f 68f
5:00am 9 11 mph 1017.8mb 70f 68f
4:54am 9 13 mph 1017.8mb 70f 68f
4:48am 9 13 mph 1017.8mb 70f 68f
4:42am 9 13 mph 1017.8mb 70f 68f
4:36am 9 11 mph 1017.7mb 70f 68f
4:30am 8 11 mph 1017.7mb 70f 68f
4:24am 8 11 mph 1017.6mb 70f 68f
4:18am 8 10 mph 1017.7mb 70f -
4:12am 7 9 mph 1017.7mb 70f 68f
4:06am 8 11 mph 1017.8mb 70f 68f
4:00am 7 10 mph 1017.8mb 70f 68f
3:54am 7 10 mph 1017.9mb 70f 68f
3:48am 8 11 mph 1017.9mb 70f 68f
3:42am 10 13 mph 1017.9mb 70f 68f
3:36am 9 11 mph 1018mb 70f 68f
3:30am 9 11 mph 1018mb 70f 68f
3:24am 8 11 mph 1018mb 70f 68f
3:18am 7 9 mph 1018mb 70f 68f
3:12am 6 8 mph 1017.9mb 70f 67f
3:06am 5 7 mph 1018mb 70f 67f
3:00am 6 6 mph 1018mb 70f 67f
2:54am 6 6 mph 1018mb 70f 67f
2:48am 6 8 mph 1018.1mb - -
2:42am 6 7 mph 1018.1mb 70f 67f
2:36am 7 8 mph 1018mb 70f 67f
2:30am 7 8 mph 1018mb 70f 66f
2:24am 7 9 mph 1018.1mb 70f 67f
2:18am 7 8 mph 1018.1mb 70f 67f
2:12am 7 8 mph 1018.2mb 70f 67f
2:06am 7 9 mph 1018.2mb 70f 67f
2:00am 7 9 mph 1018.3mb 70f 68f
1:54am 7 10 mph 1018.2mb 70f 68f
1:48am 9 11 mph 1018.2mb 70f 68f
1:42am 8 10 mph 1018.2mb 70f 68f
1:36am 8 10 mph 1018.3mb 70f 68f
1:30am 9 11 mph 1018.3mb 70f 67f
1:24am 10 13 mph 1018.4mb 71f 67f
1:18am 9 13 mph - - -
1:12am 9 13 mph 1018.3mb 71f 67f
1:06am 9 13 mph 1018.3mb 71f 68f
1:00am 10 14 mph 1018.2mb 71f 68f
12:54am 10 14 mph 1018.2mb 71f 68f
12:48am 9 13 mph 1018.3mb 71f 67f
12:42am 10 13 mph 1018.3mb 71f 67f
12:36am 9 13 mph 1018.3mb 71f 67f
12:30am 10 13 mph 1018.3mb 71f 67f
12:24am 11 15 mph 1018.3mb 71f 67f
12:18am 10 14 mph 1018.4mb 71f 68f
12:12am 10 13 mph 1018.4mb 71f 67f
12:06am 10 14 mph 1018.4mb 71f 68f
12:00am 10 15 mph 1018.5mb 71f 68f
Sat 02/17 11:54pm 13 15 mph 1018.5mb 71f 68f
11:48pm 13 15 mph 1018.5mb 71f -
11:42pm 13 15 mph 1018.6mb 71f -
11:36pm 11 15 mph 1018.6mb 71f -
11:30pm 13 15 mph 1018.7mb 71f 68f
11:24pm 14 16 mph 1018.7mb 71f 68f
11:18pm 14 16 mph 1018.8mb - -
11:12pm 13 16 mph 1018.8mb 71f 69f
11:06pm 13 17 mph 1018.8mb 71f 69f
11:00pm 11 16 mph 1018.8mb 71f 69f
10:54pm 13 15 mph 1018.8mb 71f 69f
10:48pm 13 16 mph 1018.8mb 71f 69f
10:42pm 13 17 mph 1018.8mb 71f 69f
10:36pm 13 17 mph 1018.8mb 71f 69f
10:30pm 14 16 mph 1018.9mb 71f 69f
10:24pm 13 16 mph 1018.9mb 71f 69f
10:18pm 14 18 mph 1018.9mb 71f 69f
10:12pm 15 20 mph 1018.9mb 71f 69f
10:06pm 15 18 mph 1018.9mb 71f 69f
10:00pm 15 20 mph 1018.8mb 71f 69f
9:54pm 16 20 mph 1018.8mb 72f 69f
9:48pm 15 20 mph 1018.8mb 72f 69f
9:42pm 16 18 mph 1018.8mb 72f 69f
9:36pm 15 21 mph 1018.8mb 72f 69f
9:30pm 15 20 mph 1018.7mb 72f 69f
9:24pm 16 21 mph 1018.7mb 72f 69f
9:18pm 16 21 mph 1018.6mb 72f 69f
9:12pm 13 17 mph 1018.5mb 72f 70f
9:06pm 11 17 mph 1018.5mb 72f 70f
9:00pm 14 17 mph 1018.5mb 72f 70f
8:54pm 14 20 mph 1018.4mb 72f 69f
8:48pm 15 17 mph 1018.5mb 72f 69f
8:42pm 14 18 mph 1018.5mb 72f 68f
8:36pm 13 16 mph 1018.5mb 72f 68f
8:30pm 10 16 mph 1018.5mb 72f 68f
8:24pm 13 16 mph 1018.4mb 72f 68f
8:18pm 14 17 mph 1018.3mb 73f 68f
8:12pm 14 17 mph 1018.3mb 73f 68f
8:06pm 14 17 mph 1018.2mb 73f 68f
8:00pm 15 18 mph 1018.2mb 73f 68f
7:54pm 16 21 mph 1018.1mb 73f 68f
7:48pm 15 18 mph 1018.1mb 73f 68f
7:42pm 14 18 mph 1018mb 73f 68f
7:36pm 13 16 mph 1018mb 73f 68f
7:30pm 13 16 mph 1018mb 73f 68f
7:24pm 14 16 mph 1017.9mb 73f 68f
7:18pm 11 15 mph 1017.8mb 73f 68f
7:12pm 11 16 mph 1017.8mb 73f 67f
7:06pm 13 17 mph 1017.7mb 73f 67f
7:00pm 13 15 mph 1017.6mb 73f 68f
6:54pm 13 16 mph 1017.5mb 73f 68f
6:48pm 13 15 mph 1017.4mb 73f 68f
6:42pm 14 17 mph 1017.4mb 73f 68f
6:36pm 13 16 mph 1017.4mb 73f 68f
6:30pm 13 18 mph 1017.5mb 73f 68f
6:24pm 14 17 mph 1017.4mb 73f 69f
6:18pm 14 18 mph 1017.3mb 73f 69f
6:12pm 14 17 mph 1017.3mb 73f 69f
6:06pm 13 17 mph 1017.2mb 73f 69f
6:00pm 14 18 mph 1017.1mb 73f 69f
5:54pm 14 18 mph 1017mb 73f 69f
5:48pm 14 17 mph 1016.9mb 73f 70f
5:42pm 14 20 mph 1016.9mb 73f 70f
5:36pm 13 22 mph 1016.8mb 73f 71f
5:30pm 14 20 mph 1016.8mb 73f 71f
5:24pm 14 20 mph 1016.7mb 73f 70f
5:18pm 14 18 mph 1016.6mb 73f 70f
5:12pm 14 18 mph 1016.7mb 73f 70f
5:06pm 15 20 mph 1016.7mb 73f 70f
5:00pm 15 20 mph 1016.7mb 73f 70f
4:54pm 15 20 mph 1016.7mb 73f 70f
4:48pm 15 18 mph 1016.7mb 72f 71f
4:42pm 14 20 mph 1016.7mb 72f 71f
4:36pm 15 20 mph 1016.8mb 72f 71f
4:30pm 16 18 mph 1016.7mb 71f 71f
4:24pm 15 18 mph 1016.7mb 71f 72f
4:18pm 16 21 mph 1016.7mb 71f 72f
4:12pm 17 22 mph 1016.7mb 71f 72f
4:06pm 16 21 mph 1016.8mb 71f 72f
4:00pm 14 18 mph 1016.8mb 71f 72f
3:54pm 15 18 mph 1016.9mb 71f 72f
3:48pm 16 20 mph 1016.9mb 70f 71f
3:42pm 16 21 mph 1017mb 70f 72f
3:36pm 16 20 mph 1017mb 70f 72f
3:30pm 15 22 mph 1017.1mb 70f 73f
3:24pm 16 20 mph 1017.1mb 69f 72f
3:18pm 16 22 mph 1017.1mb 69f 72f
3:12pm 16 20 mph 1017.2mb 69f 71f
3:06pm 17 23 mph 1017.1mb 69f 71f
3:00pm 17 22 mph 1017.1mb 69f 71f
2:54pm 15 20 mph 1017.2mb 69f 71f
2:48pm 13 20 mph 1017.3mb 69f 71f
2:42pm 15 23 mph 1017.4mb 69f 71f
2:36pm 15 21 mph 1017.4mb 69f 71f
2:30pm 14 22 mph 1017.4mb 69f 71f
2:24pm 16 21 mph 1017.5mb 69f 70f
2:18pm 13 16 mph 1017.5mb 69f 70f
2:12pm 14 17 mph 1017.6mb 69f 69f
2:06pm 13 17 mph 1017.7mb 69f 70f
2:00pm 13 17 mph 1017.7mb 69f 70f
1:54pm 10 17 mph 1017.8mb 69f 71f
1:48pm 14 16 mph 1017.9mb 69f 70f
1:42pm 13 16 mph 1018mb 69f 70f
1:36pm 11 17 mph 1018mb 69f 70f
1:30pm 13 16 mph 1018.1mb 69f 71f
1:24pm 11 16 mph 1018.1mb 69f 71f
1:18pm 11 16 mph 1018.2mb 69f 71f
1:12pm 10 16 mph 1018.3mb 69f 72f
1:06pm 11 14 mph 1018.4mb 68f 73f
1:00pm 10 14 mph 1018.4mb 68f 73f
12:54pm 11 15 mph 1018.5mb 68f 72f
12:48pm 8 16 mph 1018.5mb 68f 72f
12:42pm 8 14 mph 1018.6mb 68f 72f
12:36pm 13 16 mph 1018.6mb 68f 71f
12:30pm 10 15 mph 1018.7mb 68f 72f
12:24pm 10 16 mph 1018.8mb 68f 72f
12:18pm 11 15 mph 1018.8mb 68f 72f
12:12pm 10 14 mph 1018.9mb 68f 72f
12:06pm 10 14 mph 1019mb 68f 71f
12:00pm 9 13 mph 1019.1mb 68f 72f
11:54am 8 14 mph 1019.1mb 68f 73f
11:48am 11 16 mph 1019.1mb 68f 72f
11:42am 13 16 mph 1019.1mb 68f 72f
11:36am 9 11 mph 1019.1mb 68f 72f
11:30am 8 13 mph 1019.1mb 68f 71f
11:24am 9 11 mph 1019.2mb 68f 71f
11:18am 10 13 mph 1019.3mb 68f 72f
11:12am 7 10 mph 1019.3mb 67f 72f
11:06am 7 9 mph 1019.3mb 67f 72f
11:00am 8 9 mph 1019.4mb 67f 70f
10:54am 7 10 mph 1019.5mb 67f 69f
10:48am 9 11 mph 1019.5mb 67f 69f
10:42am 8 10 mph 1019.5mb 67f 69f
10:36am 8 10 mph 1019.5mb 67f 69f
10:30am 7 10 mph 1019.6mb 67f 69f
10:24am 8 11 mph 1019.5mb 67f 69f
10:18am 8 9 mph 1019.3mb 67f 68f
10:12am 6 8 mph 1019.3mb 67f 67f
10:06am 5 8 mph 1019.5mb 67f 67f
10:00am 7 8 mph 1019.4mb 67f 67f
9:54am 7 9 mph 1019.3mb 67f 67f
9:48am 7 8 mph 1019.4mb 67f 66f
9:42am 6 8 mph 1019.4mb 67f 66f
9:36am 6 8 mph 1019.3mb 67f 66f
9:30am 6 8 mph 1019.2mb 67f 66f
9:24am 7 7 mph 1019.1mb 67f 66f
9:18am 6 7 mph 1019mb 67f 66f
9:12am 7 10 mph 1018.7mb 67f 66f
9:06am 9 13 mph 1018.3mb 67f 65f
9:00am 9 13 mph 1018.1mb 67f 65f
8:54am 9 11 mph 1018mb 67f 65f
8:48am 9 13 mph 1017.9mb 67f 65f
8:42am 9 13 mph 1017.7mb 67f 66f
8:36am 9 11 mph 1017.5mb 67f 66f
8:30am 10 13 mph 1017.4mb 67f 66f
8:24am 9 11 mph 1017.3mb 67f 65f
8:18am 9 13 mph 1017.3mb 67f 65f
8:12am 11 14 mph 1017.3mb 67f 65f
8:06am 10 13 mph 1017.3mb 67f 65f
8:00am 10 14 mph 1017.3mb 67f 66f
7:54am 11 15 mph 1017.2mb 67f 66f
7:48am 11 14 mph 1017mb 67f 66f
7:42am 11 14 mph 1017mb 67f 66f
7:36am 10 14 mph 1017.1mb 67f 66f
7:30am 10 14 mph 1017mb 67f 66f
7:24am 11 15 mph 1017mb 67f 67f
7:18am 10 13 mph 1017mb 67f 66f
7:12am 11 14 mph 1017.1mb 67f 66f
7:06am 10 13 mph 1017mb 67f 66f
7:00am 9 11 mph 1017mb 67f 66f
6:54am 9 11 mph 1016.9mb 67f 66f
6:48am 11 13 mph 1016.9mb 67f 66f
6:42am 9 14 mph 1016.9mb 67f 66f
6:36am 9 13 mph 1016.9mb 67f 65f
6:30am 10 11 mph 1016.9mb 67f 65f
6:24am 9 13 mph 1016.9mb 67f 66f
6:18am 9 13 mph 1016.8mb 67f 66f
6:12am 9 11 mph 1016.7mb 67f 66f
6:06am 10 13 mph 1016.7mb 68f 66f
6:00am 9 10 mph 1016.6mb 68f 66f
5:54am 9 11 mph 1016.5mb 68f 66f
5:48am 9 10 mph 1016.5mb 68f 66f
5:42am 9 11 mph 1016.6mb 68f 66f
5:36am 10 13 mph 1016.5mb 68f 66f
5:30am 10 13 mph 1016.6mb 68f 67f
5:24am 8 11 mph 1016.5mb 68f 66f
5:18am 9 14 mph 1016.4mb 68f 67f
5:12am 8 14 mph 1016.2mb 68f 66f
5:06am 10 14 mph 1016.2mb 68f 66f
5:00am 13 15 mph 1016.1mb 68f 67f
4:54am 9 14 mph 1016.2mb 68f 67f
4:48am 10 15 mph 1016.2mb 68f -
4:42am 9 14 mph 1016.2mb 68f 67f
4:36am 10 13 mph 1016.1mb 68f 67f
4:30am 9 14 mph 1016.2mb 67f 67f
4:24am 10 14 mph 1016.2mb 67f 67f
4:18am 10 15 mph 1016.2mb 67f 66f
4:12am 11 15 mph 1016.3mb 67f 66f
4:06am 10 14 mph 1016.3mb 67f 67f
4:00am 11 16 mph 1016.3mb 67f 67f
3:54am 11 16 mph 1016.3mb 67f 67f
3:48am 10 15 mph 1016.3mb 67f 67f
3:42am 10 14 mph 1016.3mb 67f 67f
3:36am 9 14 mph 1016.4mb 67f 67f
3:30am 10 13 mph 1016.6mb 67f 67f
3:24am 8 11 mph 1016.7mb 67f 68f
3:18am 9 11 mph 1016.8mb 67f -
3:12am 7 10 mph 1016.9mb 67f 68f
3:06am 8 10 mph 1017mb 67f 68f
3:00am 7 10 mph 1017.1mb 67f 68f
2:54am 7 10 mph 1017.1mb 67f 68f
2:48am 7 9 mph 1017.2mb 67f 68f
2:42am 8 11 mph 1017.3mb 67f 68f
2:36am 8 9 mph 1017.3mb 67f 68f
2:30am 7 9 mph 1017.4mb 67f 68f
2:24am 7 9 mph 1017.5mb 67f 68f
2:18am 8 9 mph 1017.6mb 67f 68f
2:12am 7 9 mph 1017.7mb 67f 68f
2:06am 7 10 mph 1017.7mb 67f 68f
2:00am 8 10 mph 1017.7mb 67f 68f
1:54am 8 13 mph 1017.7mb 67f 68f
1:48am 9 13 mph 1017.7mb 67f 68f
1:42am 8 11 mph 1017.8mb 67f 68f
1:36am 9 11 mph 1017.9mb 67f 68f
1:30am 8 10 mph 1018mb 67f 68f
1:24am 7 9 mph 1018.1mb 67f 67f
1:18am 7 9 mph 1018.2mb 67f 67f
1:12am 6 9 mph 1018.2mb 67f 67f
1:06am 7 9 mph 1018.3mb 67f 67f
1:00am 6 9 mph 1018.3mb 67f 67f
12:54am 6 8 mph 1018.3mb 67f 67f
12:48am 5 7 mph 1018.4mb 67f -
12:42am 7 9 mph 1018.5mb 67f 67f
12:36am 7 10 mph 1018.4mb 67f 67f
12:30am 9 11 mph 1018.4mb 67f 68f
12:24am 7 9 mph 1018.4mb 67f 68f
12:18am 7 9 mph 1018.3mb - -
12:12am 7 9 mph 1018.3mb 67f 68f
12:06am 6 8 mph 1018.3mb 67f 68f
12:00am 6 8 mph 1018.3mb 67f 68f
Fri 02/16 11:54pm 6 8 mph 1018.4mb 67f 68f
11:48pm 6 7 mph 1018.4mb 67f 68f
11:42pm 7 9 mph 1018.5mb 67f 67f
11:36pm 6 8 mph 1018.5mb 67f 67f
11:30pm 7 9 mph 1018.5mb 67f 67f
11:24pm 8 11 mph 1018.4mb 67f 68f
11:18pm 8 10 mph 1018.4mb 67f 68f
11:12pm 8 11 mph 1018.2mb 67f 68f
11:06pm 7 10 mph 1018.2mb 67f 68f
11:00pm 8 9 mph 1018.1mb 67f 68f
10:54pm 8 11 mph 1018.1mb 67f 68f
10:48pm 8 10 mph 1018.1mb 67f 68f
10:42pm 7 10 mph 1018mb 67f 68f
10:36pm 8 11 mph 1017.9mb 68f 68f
10:30pm 9 13 mph 1017.9mb 68f 68f
10:24pm 10 13 mph 1017.9mb 68f 68f
10:18pm 11 14 mph 1017.8mb 68f 68f
10:12pm 11 15 mph 1017.8mb 68f 68f
10:06pm 13 16 mph 1017.8mb 68f 68f
10:00pm 13 18 mph 1017.8mb 68f 68f
9:54pm 14 16 mph 1017.8mb 68f 68f
9:48pm 14 17 mph 1017.9mb 68f 68f
9:42pm 15 18 mph 1017.9mb 68f 68f
9:36pm 14 18 mph 1017.9mb 68f 68f
9:30pm 14 18 mph 1017.9mb 68f 68f
9:24pm 14 18 mph 1017.9mb 68f 68f
9:18pm 14 17 mph 1017.9mb 69f 68f
9:12pm 13 15 mph 1017.8mb 69f 68f
9:06pm 14 17 mph 1017.9mb 69f 67f
9:00pm 14 17 mph 1017.8mb 69f 67f
8:54pm 13 17 mph 1017.9mb 69f 67f
8:48pm 13 16 mph 1017.9mb 69f 67f
8:42pm 13 15 mph 1017.9mb 69f 67f
8:36pm 11 15 mph 1017.9mb 69f 66f
8:30pm 11 14 mph 1017.8mb 69f 66f
8:24pm 11 15 mph 1017.8mb 69f 66f
8:18pm 13 18 mph 1017.7mb 69f 67f
8:12pm 14 16 mph 1017.7mb 69f 67f
8:06pm 14 17 mph 1017.6mb 69f 68f
8:00pm 14 17 mph 1017.6mb 69f 68f
7:54pm 14 17 mph 1017.5mb 69f 67f
7:48pm 13 16 mph 1017.4mb 69f 67f
7:42pm 14 17 mph 1017.5mb 69f 67f
7:36pm 13 17 mph 1017.5mb 69f 67f
7:30pm 14 17 mph 1017.4mb 70f 67f
7:24pm 11 15 mph 1017.4mb 70f 66f
7:18pm 13 14 mph 1017.3mb 70f 65f
7:12pm 10 13 mph 1017.2mb 70f 65f
7:06pm 9 13 mph 1017.2mb 70f 65f
7:00pm 10 13 mph 1017.1mb 70f 64f
6:54pm 11 14 mph 1017mb 70f 65f
6:48pm 11 16 mph 1017mb 70f 66f
6:42pm 13 16 mph 1017mb 70f 67f
6:36pm 14 15 mph 1017.1mb 70f 66f
6:30pm 14 16 mph 1017.1mb 70f 67f
6:24pm 13 15 mph 1017mb 70f 66f
6:18pm 13 15 mph 1017mb 70f 65f
6:12pm 13 15 mph 1017mb 70f 65f
6:06pm 13 16 mph 1017mb 70f 65f
6:00pm 14 15 mph 1017.1mb 70f 66f
5:54pm 13 15 mph 1017.1mb 70f 66f
5:48pm 11 14 mph 1017.2mb 70f 66f
5:42pm 13 15 mph 1017.2mb 70f 65f
5:36pm 11 15 mph 1017.2mb 70f 66f
5:30pm 14 15 mph 1017.3mb 70f 66f
5:24pm 13 15 mph 1017.3mb 70f 66f
5:18pm 11 15 mph 1017.3mb 70f 67f
5:12pm 13 16 mph 1017.3mb 70f 68f
5:06pm 13 16 mph 1017.2mb 70f 68f
5:00pm 11 15 mph 1017.2mb 70f 68f
4:54pm 14 16 mph 1017.2mb 70f 68f
4:48pm 13 15 mph 1017.2mb 70f 68f
4:42pm 13 16 mph 1017.2mb 69f 68f
4:36pm 11 14 mph 1017.2mb 69f 68f
4:30pm 13 15 mph 1017.2mb 69f 68f
4:24pm 14 15 mph 1017.2mb 69f 68f
4:18pm 14 16 mph 1017.2mb 69f 68f
4:12pm 14 16 mph 1017.2mb 68f 68f
4:06pm 14 16 mph 1017.2mb 68f 69f
4:00pm 14 16 mph 1017.2mb 68f 69f
3:54pm 14 16 mph 1017.3mb 68f 69f
3:48pm 14 16 mph 1017.2mb 68f 69f
3:42pm 13 16 mph 1017.2mb 67f 69f
3:36pm 14 17 mph 1017.2mb 66f 69f
3:30pm 15 18 mph 1017.2mb 66f 70f
3:24pm 15 18 mph 1017.2mb 66f 70f
3:18pm 15 17 mph 1017.3mb 66f 70f
3:12pm 15 17 mph 1017.3mb 66f 69f
3:06pm 15 17 mph 1017.5mb 66f 69f
3:00pm 15 16 mph 1017.5mb 66f 69f
2:54pm 14 17 mph 1017.6mb 66f 69f
2:48pm 14 17 mph 1017.7mb 66f 69f
2:42pm 16 18 mph 1017.7mb 66f 69f
2:36pm 16 20 mph 1017.8mb 66f 69f
2:30pm 15 18 mph 1017.8mb 66f 69f
2:24pm 15 17 mph 1017.9mb 65f 68f
2:18pm 14 18 mph 1017.9mb 65f 68f
2:12pm 14 16 mph 1018mb 65f 69f
2:06pm 10 14 mph 1018.1mb 65f 68f
2:00pm 10 13 mph 1018.1mb 65f 68f
1:54pm 9 11 mph 1018.2mb 65f 68f
1:48pm 10 11 mph 1018.2mb 65f 68f
1:42pm 9 13 mph 1018.3mb 65f 68f
1:36pm 9 13 mph 1018.3mb 65f 68f
1:30pm 10 13 mph 1018.4mb 65f 68f
1:24pm 9 13 mph 1018.5mb 65f 69f
1:18pm 9 13 mph 1018.7mb 65f 70f
1:12pm 9 14 mph 1018.9mb 65f 71f
1:06pm 9 11 mph 1019.1mb 65f 71f
1:00pm 8 10 mph 1019.1mb 65f 70f
12:54pm 8 14 mph 1019.2mb 65f 71f
12:48pm 8 13 mph 1019.2mb 65f 71f
12:42pm 8 14 mph 1019.2mb 65f 71f
12:36pm 10 15 mph 1019.3mb 65f 71f
12:30pm 11 15 mph 1019.4mb 65f 71f
12:24pm 10 14 mph 1019.6mb 65f 71f
12:18pm 8 15 mph 1019.7mb 65f 71f
12:12pm 9 11 mph 1019.8mb 65f 71f
12:06pm 8 11 mph 1019.9mb 65f 71f
12:00pm 9 11 mph 1020mb 65f 71f
11:54am 8 13 mph 1020mb 65f 70f
11:48am 8 10 mph 1020.1mb 65f 71f
11:42am 7 9 mph 1020.1mb 65f 70f
11:36am 8 10 mph 1020.2mb 65f 70f
11:30am 7 9 mph 1020.3mb 65f 69f
11:24am 7 9 mph 1020.3mb 65f 69f
11:18am 8 9 mph 1020.4mb 65f 69f
11:12am 8 10 mph 1020.4mb 65f 69f
11:06am 7 11 mph 1020.4mb 65f 69f
11:00am 8 9 mph 1020.3mb 65f 68f
10:54am 7 9 mph 1020.3mb 65f 68f
10:48am 8 10 mph 1020.3mb 65f 68f
10:42am 7 10 mph 1020.4mb 65f 67f
10:36am 8 13 mph 1020.2mb 65f 67f
10:30am 9 14 mph 1020.1mb 65f 67f
10:24am 10 14 mph 1019.9mb 65f 67f
10:18am 9 14 mph 1019.8mb 65f 67f
10:12am 10 16 mph 1019.7mb 65f 67f
10:06am 10 14 mph 1019.6mb 65f 67f
10:00am 11 14 mph 1019.5mb 65f 67f
9:54am 9 14 mph 1019.6mb 65f 67f
9:48am 9 13 mph 1019.6mb 65f 66f
9:42am 8 13 mph 1019.6mb 65f 66f
9:36am 10 13 mph 1019.6mb 65f 66f
9:30am 9 14 mph 1019.5mb 65f 66f
9:24am 11 17 mph 1019.5mb 64f 66f
9:18am 11 15 mph 1019.3mb 64f 66f
9:12am 13 15 mph 1019.2mb 64f 66f
9:06am 11 16 mph 1019.1mb 64f 66f
9:00am 13 20 mph 1019mb 64f 66f
8:54am 14 18 mph 1018.9mb 64f 66f
8:48am 13 16 mph 1018.8mb 64f 66f
8:42am 11 16 mph 1018.8mb 64f 65f
8:36am 11 17 mph 1018.7mb 64f 66f
8:30am 11 18 mph 1018.6mb 64f 66f
8:24am 13 16 mph 1018.5mb 64f 66f
8:18am 11 14 mph 1018.5mb 64f 66f
8:12am 11 16 mph 1018.6mb 64f 66f
8:06am 11 16 mph 1018.4mb 64f 65f
8:00am 10 16 mph 1018.3mb 64f 65f
7:54am 11 15 mph 1018.3mb 64f 65f
7:48am 11 14 mph 1018.2mb 64f -
7:42am 13 15 mph 1018.2mb 64f 65f
7:36am 11 16 mph 1018.2mb 64f 65f
7:30am 13 17 mph 1018.2mb 64f 65f
7:24am 14 16 mph 1018.2mb 64f 65f
7:18am 11 16 mph 1018.1mb 64f 65f
7:12am 10 14 mph 1018.1mb 64f 64f
7:06am 10 15 mph 1018.1mb 64f 64f
7:00am 10 14 mph 1018.1mb 64f 65f
6:54am 10 14 mph 1018mb 64f 64f
6:48am 9 13 mph 1018mb 64f 64f
6:42am 9 13 mph 1018mb 64f 65f
6:36am 9 13 mph 1018mb 64f 65f
6:30am 9 11 mph 1018mb 64f 65f
6:24am 9 13 mph 1017.9mb 64f 65f
6:18am 8 14 mph - - -
6:12am 9 13 mph 1017.9mb 64f 66f
6:06am 9 13 mph 1017.8mb 64f 66f
6:00am 10 14 mph 1017.8mb 64f 66f
5:54am 10 16 mph 1017.8mb 64f 66f
5:48am 10 14 mph 1017.7mb 64f 66f
5:42am 10 14 mph 1017.7mb 64f 66f
5:36am 11 16 mph 1017.7mb 64f 66f
5:30am 8 13 mph 1017.6mb 65f 65f
5:24am 9 13 mph 1017.5mb 65f 65f
5:18am 8 13 mph 1017.4mb 65f -
5:12am 8 10 mph 1017.4mb 65f 65f
5:06am 9 13 mph 1017.3mb 65f 65f
5:00am 10 15 mph 1017.3mb 65f 65f
4:54am 10 14 mph 1017.3mb 65f 65f
4:48am 10 13 mph 1017.3mb 65f -
4:42am 9 10 mph 1017.3mb 65f 65f
4:36am 9 11 mph 1017.3mb 65f 65f
4:30am 8 13 mph 1017.3mb 65f 65f
4:24am 10 13 mph 1017.3mb 65f 65f
4:18am 9 13 mph 1017.3mb 65f 65f
4:12am 9 11 mph 1017.3mb 65f 65f
4:06am 10 14 mph 1017.3mb 65f 65f
4:00am 10 14 mph 1017.3mb 65f 65f
3:54am 10 14 mph 1017.3mb 64f 65f
3:48am 11 17 mph 1017.2mb 64f 65f
3:42am 11 15 mph 1017.2mb 64f 65f
3:36am 9 13 mph 1017.2mb 64f 65f
3:30am 9 11 mph 1017.2mb 64f 65f
3:24am 9 11 mph 1017.2mb 64f 64f
3:18am 8 10 mph 1017.2mb 64f 65f
3:12am 7 10 mph 1017.2mb 64f 65f
3:06am 8 13 mph 1017.1mb 64f 65f
3:00am 10 14 mph 1017mb 64f 65f
2:54am 10 14 mph 1017mb 64f 65f
2:48am 9 13 mph 1017.1mb 64f 65f
2:42am 10 13 mph 1017.1mb 64f 65f
2:36am 10 13 mph 1017.1mb 64f 65f
2:30am 11 15 mph 1017.1mb 64f 65f
2:24am 9 13 mph 1017.2mb 64f 66f
2:18am 9 13 mph 1017.3mb 64f -
2:12am 10 13 mph 1017.3mb 64f 66f
2:06am 9 11 mph 1017.4mb 64f 66f
2:00am 9 11 mph 1017.5mb 64f 66f
1:54am 9 14 mph 1017.6mb 64f 66f
1:48am 10 14 mph 1017.7mb 64f 66f
1:42am 9 13 mph 1017.7mb 64f 66f
1:36am 9 13 mph 1017.8mb 64f 66f
1:30am 8 11 mph 1017.8mb 64f 67f
1:24am 8 9 mph 1017.8mb 64f 66f
1:18am 9 13 mph 1017.9mb 64f 67f
1:12am 10 13 mph 1017.8mb 64f 67f
1:06am 10 15 mph 1017.8mb 64f 67f
1:00am 9 11 mph 1017.8mb 64f 67f
12:54am 8 11 mph 1017.7mb 64f 66f
12:48am 10 13 mph 1017.7mb 64f 66f
12:42am 10 13 mph 1017.8mb 64f 66f
12:36am 10 17 mph 1017.8mb 64f 67f
12:30am 10 15 mph 1017.7mb 64f 67f
12:24am 10 14 mph 1017.7mb 64f 67f
12:18am 10 14 mph 1017.7mb 64f 67f
12:12am 13 16 mph 1017.7mb 64f 67f
12:06am 11 16 mph 1017.7mb 64f 66f
12:00am 13 17 mph 1017.6mb 64f 66f
Thu 02/15 11:54pm 13 17 mph 1017.7mb 64f 66f
11:48pm 13 17 mph 1017.7mb 64f 66f
11:42pm 13 16 mph 1017.7mb 64f -
11:36pm 11 17 mph 1017.7mb 64f -
11:30pm 13 16 mph 1017.8mb 64f 66f
11:24pm 11 16 mph 1017.8mb 64f 66f
11:18pm 11 16 mph 1017.8mb 64f 66f
11:12pm 11 15 mph 1017.9mb 64f 66f
11:06pm 11 15 mph 1018mb 64f 66f
11:00pm 9 15 mph 1018mb 64f 66f
10:54pm 9 15 mph 1018mb 64f 66f
10:48pm 11 14 mph 1018.1mb 64f 66f
10:42pm 9 15 mph 1018.1mb 64f 66f
10:36pm 10 14 mph 1018.1mb 64f 66f
10:30pm 9 14 mph 1018.1mb 64f 66f
10:24pm 9 14 mph 1018.1mb 64f 66f
10:18pm 8 14 mph 1018.1mb 64f 66f
10:12pm 10 15 mph 1018mb 64f 66f
10:06pm 9 14 mph 1018mb 64f 66f
10:00pm 8 14 mph 1017.9mb 64f 66f
9:54pm 9 13 mph 1017.9mb 64f 66f
9:48pm 9 13 mph 1017.8mb 64f 66f
9:42pm 10 15 mph 1017.7mb 64f 66f
9:36pm 11 15 mph 1017.7mb 64f 66f